Time;durP1;ratioP1;P1;durP2;ratioP2;P2;SDS_P1;SDS_P2;PMS_P1;PMS_P2;Temp;Humidity;BMP_temperature;BMP_pressure;BME280_temperature;BME280_humidity;BME280_pressure;Samples;Min_cycle;Max_cycle;Signal;HPM_P1;HPM_P2
2023/02/23 00:01:49;;;;;;;0.17;0.17;;;9.40;99.90;;;;;;4995184;28;20030;-82
2023/02/23 00:04:14;;;;;;;0.38;0.38;;;9.40;99.90;;;;;;5000749;28;20032;-82
2023/02/23 00:06:40;;;;;;;0.10;0.10;;;9.30;99.90;;;;;;5000246;28;20034;-82
2023/02/23 00:09:13;;;;;;;0.10;0.10;;;9.40;99.90;;;;;;4999149;28;20121;-82
2023/02/23 00:11:38;;;;;;;0.20;0.20;;;9.30;99.90;;;;;;4984778;28;20026;-82
2023/02/23 00:14:07;;;;;;;1.92;1.25;;;9.40;99.90;;;;;;4991943;28;20053;-82
2023/02/23 00:16:32;;;;;;;0.17;0.17;;;9.30;99.90;;;;;;5006759;28;20565;-81
2023/02/23 00:19:01;;;;;;;0.73;0.73;;;9.40;99.90;;;;;;4994523;28;20028;-82
2023/02/23 00:21:31;;;;;;;0.22;0.22;;;9.30;99.90;;;;;;4999430;28;20477;-81
2023/02/23 00:23:59;;;;;;;0.10;0.10;;;9.30;99.90;;;;;;4999292;28;20557;-82
2023/02/23 00:26:30;;;;;;;0.10;0.10;;;9.30;99.90;;;;;;5000534;28;20113;-82
2023/02/23 00:28:56;;;;;;;0.65;0.43;;;9.30;99.90;;;;;;4995026;28;20217;-83
2023/02/23 00:31:24;;;;;;;0.75;0.43;;;9.20;99.90;;;;;;4997154;28;20038;-82
2023/02/23 00:33:55;;;;;;;0.10;0.10;;;9.20;99.90;;;;;;5000527;28;20072;-82
2023/02/23 00:36:24;;;;;;;0.10;0.10;;;9.20;99.90;;;;;;4999568;28;20549;-83
2023/02/23 00:38:59;;;;;;;0.10;0.10;;;9.20;99.90;;;;;;4993969;28;20104;-83
2023/02/23 00:41:27;;;;;;;0.30;0.30;;;9.20;99.90;;;;;;4999290;28;20860;-83
2023/02/23 00:43:54;;;;;;;0.10;0.10;;;9.20;99.90;;;;;;4997979;28;20120;-83
2023/02/23 00:46:22;;;;;;;0.10;0.10;;;9.20;99.90;;;;;;4997108;28;20034;-83
2023/02/23 00:48:50;;;;;;;0.20;0.20;;;9.20;99.90;;;;;;5000471;28;20045;-83
2023/02/23 00:51:16;;;;;;;;;;;9.30;99.90;;;;;;4995178;28;20109;-81
2023/02/23 00:53:43;;;;;;;0.47;0.47;;;9.20;99.90;;;;;;5003557;28;20419;-81
2023/02/23 00:56:11;;;;;;;0.10;0.10;;;9.30;99.90;;;;;;4995469;28;20061;-81
2023/02/23 00:58:38;;;;;;;0.30;0.30;;;9.30;99.90;;;;;;5000123;28;20484;-81
2023/02/23 01:01:12;;;;;;;0.60;0.60;;;9.20;99.90;;;;;;5002045;28;20019;-84
2023/02/23 01:03:40;;;;;;;0.22;0.22;;;9.20;99.90;;;;;;4991250;28;20022;-82
2023/02/23 01:06:09;;;;;;;0.30;0.30;;;9.20;99.90;;;;;;4997585;28;20034;-81
2023/02/23 01:08:38;;;;;;;0.63;0.63;;;9.20;99.90;;;;;;4979090;28;20545;-81
2023/02/23 01:11:08;;;;;;;0.10;0.10;;;9.20;99.90;;;;;;4981623;28;20104;-82
2023/02/23 01:13:34;;;;;;;0.38;0.38;;;9.20;99.90;;;;;;4994068;28;20022;-81
2023/02/23 01:16:02;;;;;;;0.10;0.10;;;9.20;99.90;;;;;;5002979;28;20045;-81
2023/02/23 01:18:28;;;;;;;0.40;0.40;;;9.30;99.90;;;;;;4995593;28;20033;-81
2023/02/23 01:20:53;;;;;;;0.25;0.25;;;9.30;99.90;;;;;;4989549;28;20030;-81
2023/02/23 01:23:20;;;;;;;0.90;0.90;;;9.30;99.90;;;;;;5019382;28;20543;-81
2023/02/23 01:25:46;;;;;;;0.30;0.30;;;9.30;99.90;;;;;;5010793;28;20032;-81
2023/02/23 01:28:12;;;;;;;0.20;0.20;;;9.20;99.90;;;;;;5002913;28;20409;-81
2023/02/23 01:30:39;;;;;;;0.10;0.10;;;9.30;99.90;;;;;;5001098;28;20026;-81
2023/02/23 01:33:05;;;;;;;8.23;0.93;;;9.30;99.90;;;;;;4985275;28;20041;-81
2023/02/23 01:35:34;;;;;;;0.43;0.43;;;9.30;99.90;;;;;;4987706;28;20034;-81
2023/02/23 01:38:00;;;;;;;0.10;0.10;;;9.30;99.90;;;;;;5011159;28;20046;-82
2023/02/23 01:40:30;;;;;;;0.10;0.10;;;9.30;99.90;;;;;;4994753;28;20030;-82
2023/02/23 01:42:59;;;;;;;0.45;0.45;;;9.40;99.90;;;;;;4987830;28;20038;-82
2023/02/23 01:45:27;;;;;;;0.45;0.45;;;9.40;99.90;;;;;;4996584;28;20030;-82
2023/02/23 01:48:06;;;;;;;0.10;0.10;;;9.40;99.90;;;;;;4996784;28;20029;-83
2023/02/23 01:50:46;;;;;;;0.70;0.70;;;9.20;99.90;;;;;;5004544;28;20038;-82
2023/02/23 01:53:12;;;;;;;0.10;0.10;;;9.30;99.90;;;;;;5005931;28;20026;-81
2023/02/23 01:55:38;;;;;;;0.60;0.50;;;9.30;99.90;;;;;;5008791;28;20599;-82
2023/02/23 01:58:14;;;;;;;1.17;1.17;;;9.30;99.90;;;;;;4995681;28;20113;-81
2023/02/23 02:00:42;;;;;;;0.10;0.10;;;9.30;99.90;;;;;;5007965;28;20029;-82
2023/02/23 02:03:12;;;;;;;0.20;0.20;;;9.30;99.90;;;;;;5001088;28;20034;-82
2023/02/23 02:05:39;;;;;;;0.10;0.10;;;9.30;99.90;;;;;;5003439;28;20030;-82
2023/02/23 02:08:09;;;;;;;0.10;0.10;;;9.20;99.90;;;;;;5002468;28;20033;-81
2023/02/23 02:10:39;;;;;;;0.38;0.38;;;9.10;99.90;;;;;;4995552;28;20089;-82
2023/02/23 02:13:07;;;;;;;0.20;0.20;;;9.20;99.90;;;;;;5003055;28;20084;-82
2023/02/23 02:15:42;;;;;;;0.10;0.10;;;9.20;99.90;;;;;;5000068;28;20633;-83
2023/02/23 02:18:49;;;;;;;0.32;0.32;;;9.20;99.90;;;;;;5000247;28;20038;-81
2023/02/23 02:21:59;;;;;;;0.20;0.20;;;9.30;99.90;;;;;;5002658;28;21270;-83
2023/02/23 02:24:37;;;;;;;0.20;0.20;;;9.30;99.90;;;;;;4995324;28;20030;-81
2023/02/23 02:27:20;;;;;;;0.10;0.10;;;9.20;99.90;;;;;;4997264;28;20057;-81
2023/02/23 02:30:24;;;;;;;0.10;0.10;;;9.20;99.90;;;;;;5002612;28;20069;-82
2023/02/23 02:33:30;;;;;;;0.10;0.10;;;9.10;99.90;;;;;;4972001;28;20049;-82
2023/02/23 02:36:18;;;;;;;0.32;0.32;;;9.10;99.90;;;;;;4997115;28;20026;-83
2023/02/23 02:39:22;;;;;;;0.10;0.10;;;9.10;99.90;;;;;;4982413;28;20116;-83
2023/02/23 02:42:05;;;;;;;1.75;0.47;;;9.00;99.90;;;;;;5000413;28;20056;-83
2023/02/23 02:45:02;;;;;;;0.10;0.10;;;9.00;99.90;;;;;;4994874;28;20716;-84
2023/02/23 02:47:42;;;;;;;0.20;0.20;;;8.90;99.90;;;;;;5007313;28;20038;-84
2023/02/23 02:50:13;;;;;;;0.88;0.88;;;9.00;99.90;;;;;;4973953;28;20033;-83
2023/02/23 02:52:54;;;;;;;0.95;0.90;;;9.00;99.90;;;;;;5000296;28;20030;-85
2023/02/23 02:55:26;;;;;;;0.13;0.13;;;9.00;99.90;;;;;;5007306;28;20111;-84
2023/02/23 02:57:56;;;;;;;2.83;1.13;;;9.00;99.90;;;;;;5000358;28;20072;-84
2023/02/23 04:18:26;;;;;;;0.23;0.23;;;9.00;99.90;;;;;;4999883;28;20053;-82
2023/02/23 04:20:53;;;;;;;0.30;0.30;;;8.90;99.90;;;;;;4990144;28;20288;-82
2023/02/23 04:23:21;;;;;;;0.30;0.30;;;8.80;99.90;;;;;;4997057;28;20038;-81
2023/02/23 04:25:47;;;;;;;0.10;0.10;;;8.80;99.90;;;;;;4996234;28;20532;-83
2023/02/23 04:28:13;;;;;;;0.57;0.43;;;8.70;99.90;;;;;;4998464;28;20045;-82
2023/02/23 04:30:39;;;;;;;0.20;0.20;;;8.70;99.90;;;;;;4997751;28;20057;-83
2023/02/23 04:33:05;;;;;;;0.10;0.10;;;8.60;99.90;;;;;;4998632;28;21038;-83
2023/02/23 04:35:30;;;;;;;0.30;0.30;;;8.70;99.90;;;;;;5002070;28;20022;-84
2023/02/23 04:37:57;;;;;;;0.20;0.20;;;8.60;99.90;;;;;;4995753;28;20383;-82
2023/02/23 04:40:23;;;;;;;1.98;0.73;;;8.50;99.90;;;;;;5003262;28;20042;-82
2023/02/23 04:42:49;;;;;;;0.20;0.20;;;8.40;99.90;;;;;;4996937;28;20038;-82
2023/02/23 04:45:15;;;;;;;0.88;0.50;;;8.30;99.90;;;;;;4996958;28;20161;-82
2023/02/23 04:47:40;;;;;;;0.30;0.30;;;8.30;99.90;;;;;;4984506;28;20475;-81
2023/02/23 04:50:07;;;;;;;2.50;1.23;;;8.20;99.90;;;;;;4995215;28;20516;-82
2023/02/23 04:52:33;;;;;;;0.57;0.57;;;8.20;99.90;;;;;;4999000;28;20129;-81
2023/02/23 04:55:00;;;;;;;0.50;0.50;;;8.20;99.90;;;;;;5010467;28;20052;-81
2023/02/23 04:57:27;;;;;;;0.30;0.30;;;8.20;99.90;;;;;;5001463;28;20030;-81
2023/02/23 04:59:53;;;;;;;0.52;0.52;;;8.20;99.90;;;;;;4999964;28;20326;-81
2023/02/23 05:02:19;;;;;;;0.10;0.10;;;8.10;99.90;;;;;;5013047;28;20482;-82
2023/02/23 05:04:45;;;;;;;0.63;0.63;;;8.10;99.90;;;;;;5004942;28;20032;-81
2023/02/23 05:07:10;;;;;;;0.10;0.10;;;8.00;99.90;;;;;;4999259;28;20069;-82
2023/02/23 05:09:36;;;;;;;0.75;0.75;;;7.90;99.90;;;;;;5016714;28;20584;-82
2023/02/23 05:12:02;;;;;;;3.08;1.25;;;7.80;99.90;;;;;;5004211;28;20030;-85
2023/02/23 05:14:27;;;;;;;0.10;0.10;;;7.70;99.90;;;;;;5003696;28;20041;-84
2023/02/23 05:16:53;;;;;;;0.20;0.20;;;7.70;99.90;;;;;;5001671;28;20026;-83
2023/02/23 05:19:19;;;;;;;0.30;0.30;;;7.70;99.90;;;;;;5000659;28;20038;-81
2023/02/23 05:21:45;;;;;;;0.13;0.13;;;7.70;99.90;;;;;;4984493;28;20117;-82
2023/02/23 05:24:10;;;;;;;0.10;0.10;;;7.70;99.90;;;;;;5002627;28;20052;-82
2023/02/23 05:26:36;;;;;;;0.10;0.10;;;7.70;99.90;;;;;;5003535;28;20037;-82
2023/02/23 05:29:02;;;;;;;0.30;0.30;;;7.70;99.90;;;;;;5006095;28;20040;-82
2023/02/23 05:31:28;;;;;;;0.30;0.30;;;7.70;99.90;;;;;;5002560;28;20030;-83
2023/02/23 05:33:53;;;;;;;0.32;0.32;;;7.80;99.90;;;;;;4999056;28;20528;-82
2023/02/23 05:36:20;;;;;;;0.32;0.32;;;7.90;99.90;;;;;;4980659;28;20025;-83
2023/02/23 05:38:46;;;;;;;;;;;8.00;99.90;;;;;;5010870;28;20036;-83
2023/02/23 05:41:14;;;;;;;0.30;0.30;;;8.00;99.90;;;;;;4998387;28;19913;-80
2023/02/23 05:43:41;;;;;;;0.40;0.40;;;8.00;99.90;;;;;;5013617;28;20053;-81
2023/02/23 05:46:13;;;;;;;0.15;0.15;;;8.00;99.90;;;;;;4990518;28;20414;-80
2023/02/23 05:48:39;;;;;;;0.10;0.10;;;8.10;99.90;;;;;;5003605;28;20054;-82
2023/02/23 05:51:07;;;;;;;0.10;0.10;;;8.00;99.90;;;;;;5002639;28;20587;-82
2023/02/23 05:53:33;;;;;;;0.60;0.60;;;8.00;99.90;;;;;;5005683;28;20118;-81
2023/02/23 05:56:00;;;;;;;0.20;0.20;;;8.00;99.90;;;;;;4977740;28;20042;-82
2023/02/23 05:58:27;;;;;;;0.25;0.25;;;8.00;99.90;;;;;;5000437;28;20116;-82
2023/02/23 06:00:52;;;;;;;0.10;0.10;;;8.00;99.90;;;;;;4999630;28;20037;-82
2023/02/23 06:03:18;;;;;;;0.30;0.30;;;8.10;99.90;;;;;;5008642;28;20053;-81
2023/02/23 06:05:55;;;;;;;0.30;0.30;;;8.10;99.90;;;;;;5007104;28;20438;-83
2023/02/23 06:08:23;;;;;;;0.40;0.40;;;8.20;99.90;;;;;;5013660;28;20052;-84
2023/02/23 06:10:49;;;;;;;0.10;0.10;;;8.10;99.90;;;;;;4999456;28;20100;-84
2023/02/23 06:13:15;;;;;;;0.20;0.20;;;8.20;99.90;;;;;;4999075;28;20029;-83
2023/02/23 06:15:42;;;;;;;0.17;0.17;;;8.10;99.90;;;;;;5002286;28;20061;-86
2023/02/23 06:18:08;;;;;;;0.25;0.25;;;8.10;99.90;;;;;;5006526;28;20092;-83
2023/02/23 06:20:34;;;;;;;0.22;0.22;;;8.10;99.90;;;;;;5008481;28;20038;-84
2023/02/23 06:23:00;;;;;;;0.10;0.10;;;8.10;99.90;;;;;;4998611;28;20562;-85
2023/02/23 06:25:26;;;;;;;0.45;0.45;;;8.10;99.90;;;;;;5003744;28;20033;-85
2023/02/23 06:27:52;;;;;;;0.10;0.10;;;8.00;99.90;;;;;;5004398;28;20030;-85
2023/02/23 06:30:18;;;;;;;0.27;0.27;;;8.00;99.90;;;;;;5000489;28;20553;-84
2023/02/23 06:32:44;;;;;;;0.10;0.10;;;7.90;99.90;;;;;;4981747;28;20394;-84
2023/02/23 06:35:09;;;;;;;4.70;1.88;;;7.80;99.90;;;;;;4981017;28;20026;-83
2023/02/23 06:37:36;;;;;;;0.10;0.10;;;7.80;99.90;;;;;;4975088;28;20547;-82
2023/02/23 06:40:03;;;;;;;0.77;0.77;;;7.80;99.90;;;;;;5000373;28;20030;-84
2023/02/23 06:42:28;;;;;;;0.10;0.10;;;7.70;99.90;;;;;;5006118;28;20878;-83
2023/02/23 06:44:54;;;;;;;0.10;0.10;;;7.60;99.90;;;;;;5002294;28;20049;-80
2023/02/23 06:47:23;;;;;;;0.38;0.38;;;7.60;99.90;;;;;;4999132;28;20053;-85
2023/02/23 06:49:49;;;;;;;0.10;0.10;;;7.70;99.90;;;;;;4984271;28;20465;-85
2023/02/23 06:52:15;;;;;;;0.10;0.10;;;7.70;99.90;;;;;;5004221;28;20021;-85
2023/02/23 06:54:41;;;;;;;1.35;1.20;;;7.70;99.90;;;;;;4990132;28;20029;-85
2023/02/23 06:57:08;;;;;;;1.77;0.52;;;7.70;99.90;;;;;;5002343;28;20084;-84
2023/02/23 06:59:35;;;;;;;0.30;0.30;;;7.60;99.90;;;;;;5013812;28;20037;-84
2023/02/23 07:02:01;;;;;;;0.85;0.85;;;7.60;99.90;;;;;;5006721;28;20071;-84
2023/02/23 07:04:27;;;;;;;0.88;0.65;;;7.50;99.90;;;;;;5006859;28;20029;-84
2023/02/23 07:06:53;;;;;;;0.55;0.55;;;7.50;99.90;;;;;;5014160;28;20030;-84
2023/02/23 07:09:18;;;;;;;0.20;0.20;;;7.60;99.90;;;;;;4999653;28;20522;-86
2023/02/23 07:11:44;;;;;;;3.53;1.65;;;7.60;99.90;;;;;;5012983;28;20010;-85
2023/02/23 07:14:10;;;;;;;3.38;1.00;;;7.60;99.90;;;;;;5003965;28;20033;-85
2023/02/23 07:16:38;;;;;;;0.20;0.20;;;7.50;99.90;;;;;;4995644;28;20561;-86
2023/02/23 07:19:04;;;;;;;1.00;1.00;;;7.50;99.90;;;;;;5000319;28;20030;-86
2023/02/23 07:21:33;;;;;;;0.20;0.20;;;7.50;99.90;;;;;;5000970;28;20105;-81
2023/02/23 07:24:02;;;;;;;0.13;0.13;;;7.50;99.90;;;;;;4998115;28;20065;-83
2023/02/23 07:26:27;;;;;;;0.10;0.10;;;7.90;99.90;;;;;;5003990;28;20207;-83
2023/02/23 07:28:53;;;;;;;0.10;0.10;;;7.80;99.90;;;;;;5012876;28;20548;-82
2023/02/23 07:31:19;;;;;;;7.30;1.23;;;7.70;99.90;;;;;;5012745;28;20103;-84
2023/02/23 07:33:44;;;;;;;0.10;0.10;;;7.80;99.90;;;;;;5001080;28;20394;-81
2023/02/23 07:36:10;;;;;;;0.10;0.10;;;8.10;99.90;;;;;;4991974;28;20026;-82
2023/02/23 07:38:36;;;;;;;0.10;0.10;;;8.80;99.90;;;;;;5005333;28;20060;-81
2023/02/23 07:41:03;;;;;;;0.10;0.10;;;9.70;99.90;;;;;;5014881;28;20384;-82
2023/02/23 07:43:29;;;;;;;2.17;1.65;;;10.20;99.90;;;;;;5011687;28;20081;-83
2023/02/23 07:45:58;;;;;;;5.38;2.08;;;10.50;99.90;;;;;;4989676;28;20486;-82
2023/02/23 07:48:24;;;;;;;2.20;1.08;;;10.70;99.90;;;;;;5004691;28;20108;-82
2023/02/23 07:50:49;;;;;;;0.55;0.55;;;10.80;99.90;;;;;;5011848;28;20125;-82
2023/02/23 07:53:15;;;;;;;0.10;0.10;;;10.50;99.90;;;;;;5002142;28;20053;-82
2023/02/23 07:55:41;;;;;;;0.17;0.17;;;10.10;99.90;;;;;;5009820;28;20037;-82
2023/02/23 07:58:07;;;;;;;0.20;0.20;;;9.40;99.90;;;;;;5002888;28;20040;-82
2023/02/23 08:00:35;;;;;;;0.70;0.35;;;9.00;99.90;;;;;;5002899;28;20034;-81
2023/02/23 08:03:01;;;;;;;0.10;0.10;;;9.00;99.90;;;;;;5012522;28;20036;-82
2023/02/23 08:05:28;;;;;;;0.10;0.10;;;9.60;99.90;;;;;;5000977;28;20017;-81
2023/02/23 08:07:55;;;;;;;0.22;0.22;;;10.70;99.90;;;;;;5011243;28;20036;-82
2023/02/23 08:10:21;;;;;;;0.35;0.32;;;11.30;99.90;;;;;;4990328;28;20227;-82
2023/02/23 08:12:47;;;;;;;0.20;0.20;;;11.80;99.90;;;;;;5009084;28;20030;-82
2023/02/23 08:15:12;;;;;;;0.10;0.10;;;12.30;99.90;;;;;;5007480;28;20936;-81
2023/02/23 08:17:38;;;;;;;0.50;0.30;;;12.60;99.90;;;;;;5007387;28;20029;-82
2023/02/23 08:20:05;;;;;;;0.63;0.63;;;13.00;99.90;;;;;;5001186;28;20504;-82
2023/02/23 08:22:31;;;;;;;0.05;0.05;;;13.40;99.90;;;;;;5011269;28;20115;-81
2023/02/23 08:24:57;;;;;;;0.00;0.00;;;13.70;99.90;;;;;;5003404;28;20034;-83
2023/02/23 08:27:23;;;;;;;0.00;0.00;;;13.90;99.90;;;;;;5001708;28;20037;-84
2023/02/23 08:29:51;;;;;;;0.98;0.88;;;14.10;99.90;;;;;;4999465;28;20450;-82
2023/02/23 08:32:18;;;;;;;0.15;0.15;;;13.80;99.90;;;;;;5009011;28;20558;-82
2023/02/23 08:34:44;;;;;;;0.57;0.47;;;13.60;99.90;;;;;;4985642;28;20100;-82
2023/02/23 08:37:10;;;;;;;2.03;0.43;;;13.50;99.90;;;;;;4993303;28;20030;-82
2023/02/23 08:39:36;;;;;;;0.55;0.55;;;13.50;99.90;;;;;;4996491;28;20482;-82
2023/02/23 08:42:03;;;;;;;0.10;0.10;;;13.60;99.90;;;;;;5000522;28;20026;-81
2023/02/23 08:44:29;;;;;;;;;;;13.60;99.90;;;;;;4996210;28;20060;-82
2023/02/23 08:46:57;;;;;;;1.70;1.33;;;13.80;99.90;;;;;;5017140;28;19909;-83
2023/02/23 08:49:24;;;;;;;0.00;0.00;;;14.20;99.90;;;;;;4993748;28;20127;-81
2023/02/23 08:51:50;;;;;;;0.08;0.08;;;14.50;99.90;;;;;;5004731;28;20497;-82
2023/02/23 08:54:16;;;;;;;0.77;0.77;;;14.90;99.90;;;;;;5001228;28;20037;-83
2023/02/23 08:56:41;;;;;;;0.30;0.30;;;14.50;99.90;;;;;;5009003;28;20026;-82
2023/02/23 08:59:08;;;;;;;1.30;0.70;;;14.40;99.90;;;;;;4972451;28;20988;-83
2023/02/23 09:01:34;;;;;;;1.65;0.65;;;15.40;99.90;;;;;;4989906;28;20030;-81
2023/02/23 09:04:00;;;;;;;6.63;0.77;;;15.50;99.90;;;;;;4996001;28;20818;-82
2023/02/23 09:06:26;;;;;;;0.53;0.20;;;15.10;99.90;;;;;;5001664;28;20025;-81
2023/02/23 09:08:54;;;;;;;0.50;0.50;;;14.80;99.90;;;;;;5006917;28;20049;-81
2023/02/23 09:11:20;;;;;;;0.47;0.47;;;15.00;99.90;;;;;;4991369;28;20036;-82
2023/02/23 09:13:46;;;;;;;0.00;0.00;;;15.30;99.90;;;;;;4987449;28;20035;-81
2023/02/23 09:16:12;;;;;;;1.83;1.47;;;15.40;99.90;;;;;;4990590;28;20503;-81
2023/02/23 09:18:38;;;;;;;1.70;1.60;;;15.90;99.90;;;;;;4999061;28;20084;-83
2023/02/23 09:21:07;;;;;;;1.05;0.98;;;16.00;99.90;;;;;;4994681;28;20025;-83
2023/02/23 09:23:34;;;;;;;0.73;0.73;;;16.30;99.90;;;;;;5019512;28;20056;-82
2023/02/23 09:26:04;;;;;;;0.10;0.10;;;16.00;99.90;;;;;;5020614;28;20024;-82
2023/02/23 09:28:32;;;;;;;0.30;0.30;;;15.80;98.60;;;;;;5005463;28;20734;-81
2023/02/23 09:31:04;;;;;;;2.83;0.80;;;16.30;98.70;;;;;;4990401;28;20038;-82
2023/02/23 09:33:30;;;;;;;0.28;0.28;;;16.60;97.50;;;;;;5012097;28;20032;-81
2023/02/23 09:35:56;;;;;;;0.00;0.00;;;16.70;96.70;;;;;;4999485;28;20034;-82
2023/02/23 09:38:23;;;;;;;0.80;0.43;;;16.50;97.70;;;;;;5009823;28;20025;-82
2023/02/23 09:40:53;;;;;;;0.20;0.20;;;16.50;97.10;;;;;;5020591;28;20026;-81
2023/02/23 09:43:34;;;;;;;0.10;0.10;;;16.20;97.00;;;;;;5014759;28;20068;-82
2023/02/23 09:46:35;;;;;;;0.10;0.10;;;16.10;97.00;;;;;;5004829;28;20110;-83
2023/02/23 09:49:04;;;;;;;0.50;0.47;;;15.80;95.70;;;;;;4996041;28;20526;-82
2023/02/23 09:51:35;;;;;;;0.47;0.47;;;15.40;98.00;;;;;;5016270;28;20021;-82
2023/02/23 09:54:03;;;;;;;0.05;0.05;;;15.30;97.90;;;;;;5016115;28;20101;-82
2023/02/23 09:56:34;;;;;;;0.38;0.38;;;15.40;98.30;;;;;;5008893;28;20025;-82
2023/02/23 09:59:00;;;;;;;0.10;0.10;;;15.20;98.80;;;;;;4988669;28;20967;-82
2023/02/23 10:01:48;;;;;;;0.55;0.55;;;15.40;99.00;;;;;;5008622;28;20025;-82
2023/02/23 10:04:29;;;;;;;1.05;0.90;;;15.30;98.40;;;;;;5012186;28;20053;-82
2023/02/23 10:07:22;;;;;;;0.55;0.55;;;15.30;99.40;;;;;;5003094;28;20073;-82
2023/02/23 10:10:44;;;;;;;2.08;1.02;;;15.40;99.70;;;;;;5015876;28;20552;-82
2023/02/23 10:13:30;;;;;;;0.38;0.38;;;15.20;98.20;;;;;;4943964;28;20051;-82
2023/02/23 10:16:11;;;;;;;0.50;0.50;;;15.40;97.60;;;;;;4934114;28;20095;-82
2023/02/23 10:18:56;;;;;;;1.25;1.15;;;15.50;97.50;;;;;;4988324;28;20121;-82
2023/02/23 10:21:35;;;;;;;3.47;1.05;;;15.00;97.50;;;;;;5003998;28;20898;-83
2023/02/23 10:24:05;;;;;;;0.25;0.25;;;14.70;97.90;;;;;;4983717;28;20033;-82
2023/02/23 10:26:45;;;;;;;0.32;0.32;;;14.70;97.60;;;;;;4990116;28;20030;-82
2023/02/23 10:29:18;;;;;;;1.05;0.52;;;14.60;97.10;;;;;;5004466;28;20034;-83
2023/02/23 10:31:48;;;;;;;1.13;1.08;;;14.30;97.90;;;;;;5015833;28;20037;-82
2023/02/23 10:34:16;;;;;;;1.05;0.22;;;13.90;98.40;;;;;;5002106;28;20029;-84
2023/02/23 10:36:49;;;;;;;0.38;0.38;;;13.90;98.10;;;;;;4988045;28;20420;-81
2023/02/23 10:39:15;;;;;;;0.70;0.70;;;14.00;98.80;;;;;;5001368;28;20654;-81
2023/02/23 10:41:41;;;;;;;2.90;0.63;;;14.00;98.10;;;;;;5000265;28;20087;-81
2023/02/23 10:44:18;;;;;;;0.60;0.60;;;13.80;98.30;;;;;;4988541;28;20057;-82
2023/02/23 10:46:47;;;;;;;0.05;0.05;;;13.80;98.50;;;;;;5009362;28;20492;-81
2023/02/23 10:49:18;;;;;;;0.68;0.68;;;13.30;98.70;;;;;;5016397;28;20076;-82
2023/02/23 10:51:44;;;;;;;0.85;0.80;;;13.40;98.70;;;;;;4997005;28;20202;-82
2023/02/23 10:54:37;;;;;;;0.32;0.32;;;13.20;98.70;;;;;;4994154;28;20033;-82
2023/02/23 10:57:06;;;;;;;5.18;1.55;;;13.20;98.60;;;;;;4980251;28;20040;-81
2023/02/23 10:59:32;;;;;;;0.35;0.28;;;13.30;98.90;;;;;;5000285;28;20108;-81
2023/02/23 11:01:58;;;;;;;0.35;0.35;;;13.40;99.00;;;;;;5006660;28;20105;-82
2023/02/23 11:04:29;;;;;;;0.15;0.15;;;13.60;99.00;;;;;;5006756;28;20128;-82
2023/02/23 11:07:15;;;;;;;2.85;1.25;;;13.50;98.40;;;;;;5001212;28;20419;-83
2023/02/23 11:09:41;;;;;;;0.30;0.30;;;13.70;98.60;;;;;;5000997;28;20052;-81
2023/02/23 11:12:21;;;;;;;0.20;0.20;;;13.70;98.80;;;;;;4981263;28;20031;-82
2023/02/23 11:14:48;;;;;;;1.48;1.38;;;13.60;98.40;;;;;;4994536;28;20053;-82
2023/02/23 11:17:34;;;;;;;1.13;1.08;;;13.30;98.60;;;;;;4988590;28;20883;-82
2023/02/23 11:20:03;;;;;;;0.45;0.45;;;13.30;98.90;;;;;;5000555;28;20032;-82
2023/02/23 11:22:36;;;;;;;0.70;0.68;;;13.40;98.80;;;;;;5003512;28;20038;-82
2023/02/23 11:25:37;;;;;;;0.95;0.80;;;13.30;99.20;;;;;;5004764;28;20022;-82
2023/02/23 11:28:04;;;;;;;0.57;0.57;;;13.10;99.60;;;;;;4987439;28;20458;-81
2023/02/23 11:30:41;;;;;;;1.03;0.57;;;13.10;99.40;;;;;;4995485;28;20037;-82
2023/02/23 11:33:13;;;;;;;1.55;1.25;;;13.00;99.50;;;;;;4994458;28;21246;-82
2023/02/23 11:35:39;;;;;;;0.40;0.40;;;13.00;99.60;;;;;;5001325;28;20026;-82
2023/02/23 11:38:33;;;;;;;1.00;0.32;;;13.00;99.90;;;;;;5001265;28;20049;-82
2023/02/23 11:41:10;;;;;;;0.93;0.93;;;13.10;99.40;;;;;;5004221;28;20046;-82
2023/02/23 11:43:36;;;;;;;0.30;0.30;;;13.00;99.30;;;;;;4993315;28;20056;-81
2023/02/23 11:46:02;;;;;;;6.07;2.58;;;13.00;98.80;;;;;;5000814;28;20026;-82
2023/02/23 11:48:47;;;;;;;1.13;0.63;;;12.90;99.50;;;;;;5019430;28;20037;-82
2023/02/23 11:51:29;;;;;;;0.60;0.60;;;12.80;99.70;;;;;;5011603;28;20136;-82
2023/02/23 11:53:55;;;;;;;2.88;1.83;;;13.00;99.30;;;;;;4978885;28;20030;-82
2023/02/23 11:56:24;;;;;;;0.32;0.32;;;13.00;99.40;;;;;;5009787;28;20026;-82
2023/02/23 11:58:54;;;;;;;0.65;0.65;;;13.00;99.40;;;;;;5005445;28;20133;-82
2023/02/23 12:01:42;;;;;;;0.52;0.52;;;13.00;99.30;;;;;;5013598;28;20029;-82
2023/02/23 12:04:30;;;;;;;0.80;0.80;;;13.00;99.80;;;;;;5009711;28;20707;-82
2023/02/23 12:07:24;;;;;;;0.65;0.65;;;12.90;99.70;;;;;;4989767;28;20038;-83
2023/02/23 12:10:05;;;;;;;1.58;1.08;;;13.00;99.60;;;;;;4990672;28;20048;-82
2023/02/23 12:12:38;;;;;;;8.93;1.55;;;13.10;99.50;;;;;;4996429;28;20030;-81
2023/02/23 12:15:49;;;;;;;1.25;1.23;;;13.20;98.80;;;;;;5000882;28;20072;-82
2023/02/23 12:18:43;;;;;;;0.57;0.57;;;13.00;99.70;;;;;;4964017;28;20055;-81
2023/02/23 12:21:25;;;;;;;0.43;0.40;;;12.80;99.60;;;;;;4985458;28;20044;-82
2023/02/23 12:24:06;;;;;;;0.25;0.25;;;13.00;99.50;;;;;;4990218;28;20026;-82
2023/02/23 12:26:40;;;;;;;0.40;0.40;;;12.90;99.70;;;;;;4999816;28;20034;-82
2023/02/23 12:29:20;;;;;;;0.82;0.82;;;12.70;99.90;;;;;;5001904;28;20038;-83
2023/02/23 12:31:52;;;;;;;3.33;1.05;;;12.80;99.90;;;;;;5012194;28;20052;-82
2023/02/23 12:34:27;;;;;;;2.50;1.50;;;12.70;99.90;;;;;;4983527;28;20208;-82
2023/02/23 12:37:27;;;;;;;4.28;0.57;;;12.80;99.90;;;;;;5012046;28;20057;-81
2023/02/23 12:40:10;;;;;;;1.02;0.85;;;12.80;99.90;;;;;;4988603;28;20038;-81
2023/02/23 12:42:35;;;;;;;0.32;0.32;;;12.90;99.90;;;;;;4998500;28;20034;-82
2023/02/23 12:45:05;;;;;;;0.20;0.20;;;13.20;99.70;;;;;;4985688;28;20056;-82
2023/02/23 12:47:31;;;;;;;0.22;0.22;;;13.00;99.90;;;;;;4995730;28;20038;-81
2023/02/23 12:50:10;;;;;;;0.90;0.90;;;13.00;99.90;;;;;;4982946;28;20034;-82
2023/02/23 12:52:52;;;;;;;0.63;0.55;;;13.20;99.90;;;;;;4986725;28;20026;-81
2023/02/23 12:55:45;;;;;;;2.67;1.23;;;13.40;99.70;;;;;;4979429;28;20030;-83
2023/02/23 12:58:37;;;;;;;0.77;0.77;;;13.50;99.70;;;;;;4986494;28;20032;-81
2023/02/23 13:01:23;;;;;;;3.13;1.50;;;13.50;99.90;;;;;;4974916;28;20112;-82
2023/02/23 13:04:01;;;;;;;0.65;0.65;;;13.40;99.70;;;;;;4970752;28;20031;-82
2023/02/23 13:06:45;;;;;;;5.13;1.42;;;13.30;99.70;;;;;;4979384;28;20412;-81
2023/02/23 13:09:29;;;;;;;1.27;1.17;;;13.30;99.90;;;;;;4984677;28;20042;-82
2023/02/23 13:12:20;;;;;;;0.20;0.20;;;13.30;99.90;;;;;;4981761;28;20031;-82
2023/02/23 13:15:00;;;;;;;0.35;0.20;;;13.20;99.90;;;;;;4980184;28;20030;-81
2023/02/23 13:17:57;;;;;;;2.45;1.17;;;13.10;99.90;;;;;;4973208;28;20030;-82
2023/02/23 13:20:37;;;;;;;2.20;1.17;;;13.00;99.90;;;;;;4988914;28;20393;-82
2023/02/23 13:23:29;;;;;;;0.38;0.38;;;13.40;99.90;;;;;;5003153;28;20042;-82
2023/02/23 13:26:15;;;;;;;0.17;0.17;;;13.40;99.80;;;;;;4975057;28;20026;-81
2023/02/23 13:29:06;;;;;;;0.35;0.35;;;13.10;99.90;;;;;;4985711;28;20899;-81
2023/02/23 13:31:36;;;;;;;0.10;0.10;;;13.00;99.90;;;;;;4991947;28;20040;-82
2023/02/23 13:34:07;;;;;;;0.22;0.22;;;13.00;99.90;;;;;;4969070;28;20026;-81
2023/02/23 13:36:34;;;;;;;0.90;0.88;;;13.00;99.90;;;;;;4992852;28;20026;-82
2023/02/23 13:39:09;;;;;;;0.68;0.68;;;12.90;99.90;;;;;;5002366;28;20022;-82
2023/02/23 13:41:38;;;;;;;2.42;1.88;;;12.80;99.90;;;;;;4994800;28;20032;-81
2023/02/23 13:44:10;;;;;;;0.82;0.70;;;12.80;99.90;;;;;;4995495;28;20054;-81
2023/02/23 13:47:13;;;;;;;0.82;0.82;;;12.80;99.90;;;;;;4997021;28;20845;-82
2023/02/23 13:49:45;;;;;;;2.40;0.68;;;12.70;99.90;;;;;;4985744;28;20046;-83
2023/02/23 13:52:38;;;;;;;3.42;1.55;;;12.70;99.90;;;;;;4998142;28;20561;-82
2023/02/23 13:55:27;;;;;;;0.13;0.13;;;12.80;99.90;;;;;;4985297;28;20026;-82
2023/02/23 13:57:56;;;;;;;0.70;0.70;;;12.80;99.90;;;;;;4994980;28;20159;-81
2023/02/23 14:00:22;;;;;;;0.93;0.90;;;12.80;99.90;;;;;;4996263;28;20105;-82
2023/02/23 14:02:49;;;;;;;0.73;0.73;;;12.80;99.90;;;;;;4985546;28;20036;-81
2023/02/23 14:05:19;;;;;;;;;;;12.70;99.90;;;;;;4986868;28;20035;-81
2023/02/23 14:07:50;;;;;;;0.95;0.95;;;12.70;99.90;;;;;;4973724;28;20236;-81
2023/02/23 14:10:26;;;;;;;1.83;1.73;;;12.60;99.90;;;;;;4987056;28;20073;-81
2023/02/23 14:13:12;;;;;;;1.75;1.10;;;12.50;99.90;;;;;;4987871;28;20026;-82
2023/02/23 14:15:38;;;;;;;1.05;0.22;;;12.40;99.90;;;;;;4979714;28;20027;-82
2023/02/23 14:18:33;;;;;;;1.08;1.08;;;12.30;99.90;;;;;;4973632;28;20033;-82
2023/02/23 14:21:12;;;;;;;0.10;0.10;;;12.20;99.90;;;;;;4973454;28;20050;-82
2023/02/23 14:23:41;;;;;;;0.15;0.15;;;12.20;99.90;;;;;;4997111;28;20057;-82
2023/02/23 14:26:26;;;;;;;10.25;0.60;;;12.10;99.90;;;;;;4985194;28;20034;-82
2023/02/23 14:29:18;;;;;;;0.45;0.45;;;12.00;99.90;;;;;;4969507;28;20050;-81
2023/02/23 14:32:02;;;;;;;0.68;0.68;;;12.00;99.90;;;;;;4986060;28;20041;-82
2023/02/23 14:34:55;;;;;;;0.55;0.55;;;12.10;99.90;;;;;;4981300;28;20498;-81
2023/02/23 14:37:41;;;;;;;5.88;2.40;;;12.30;99.90;;;;;;4978085;28;20022;-82